Time;durP1;ratioP1;P1;durP2;ratioP2;P2;SDS_P1;SDS_P2;PMS_P1;PMS_P2;Temp;Humidity;BMP_temperature;BMP_pressure;BME280_temperature;BME280_humidity;BME280_pressure;Samples;Min_cycle;Max_cycle;Signal;HPM_P1;HPM_P2
2023/12/10 00:00:05;;;;;;;1999.90;999.90;;;6.80;99.90;;;;;;5053760;28;20032;-81
2023/12/10 00:02:32;;;;;;;1999.90;999.90;;;6.80;99.90;;;;;;5068836;28;20024;-79
2023/12/10 00:04:58;;;;;;;1999.90;999.90;;;6.70;99.90;;;;;;5068465;28;20031;-79
2023/12/10 00:07:23;;;;;;;1999.90;999.90;;;6.40;99.90;;;;;;5078005;28;20028;-79
2023/12/10 00:09:49;;;;;;;1999.90;999.90;;;6.40;99.90;;;;;;5072398;28;20037;-80
2023/12/10 00:12:15;;;;;;;1999.90;999.90;;;6.40;99.90;;;;;;5071487;28;20025;-80
2023/12/10 00:14:41;;;;;;;1999.90;999.90;;;6.40;99.90;;;;;;5071079;28;20473;-78
2023/12/10 00:17:06;;;;;;;1999.90;999.90;;;6.50;99.90;;;;;;5053727;28;20129;-79
2023/12/10 00:19:33;;;;;;;1999.90;999.90;;;6.50;99.90;;;;;;5074023;28;20540;-80
2023/12/10 00:21:59;;;;;;;1999.90;999.90;;;6.60;99.90;;;;;;5072508;28;20384;-78
2023/12/10 00:24:25;;;;;;;1999.90;999.90;;;6.70;99.90;;;;;;5073322;28;20028;-80
2023/12/10 00:26:51;;;;;;;1999.90;999.90;;;6.70;99.90;;;;;;5075655;28;20055;-81
2023/12/10 00:29:16;;;;;;;1999.90;999.90;;;6.80;99.90;;;;;;5072858;28;20032;-79
2023/12/10 00:31:43;;;;;;;1999.90;999.90;;;6.70;99.90;;;;;;5073806;28;20652;-81
2023/12/10 00:34:09;;;;;;;1999.90;999.90;;;6.70;99.90;;;;;;5073414;28;20025;-81
2023/12/10 00:36:37;;;;;;;1999.90;999.90;;;6.70;99.90;;;;;;5071306;28;20470;-79
2023/12/10 00:39:05;;;;;;;1999.90;999.90;;;6.60;99.90;;;;;;5069668;28;20517;-80
2023/12/10 00:41:31;;;;;;;1999.90;999.90;;;6.70;99.90;;;;;;5074166;28;20102;-81
2023/12/10 00:43:57;;;;;;;1999.90;999.90;;;6.70;99.90;;;;;;5104791;27;20098;-79
2023/12/10 00:46:22;;;;;;;1999.90;999.90;;;6.70;99.90;;;;;;5073692;28;20033;-81
2023/12/10 00:48:48;;;;;;;1999.90;999.90;;;6.70;99.90;;;;;;5070531;28;20040;-79
2023/12/10 00:51:21;;;;;;;1999.90;999.90;;;6.70;99.90;;;;;;5074266;28;20032;-81
2023/12/10 00:53:47;;;;;;;1999.90;999.90;;;6.70;99.90;;;;;;5072250;28;20044;-82
2023/12/10 00:56:13;;;;;;;1999.90;999.90;;;6.70;99.90;;;;;;5074605;28;20059;-81
2023/12/10 00:58:39;;;;;;;1999.90;999.90;;;6.70;99.90;;;;;;5073961;28;20060;-79
2023/12/10 01:01:05;;;;;;;1999.90;999.90;;;6.60;99.90;;;;;;5055349;28;20404;-80
2023/12/10 01:03:31;;;;;;;1999.90;999.90;;;6.60;99.90;;;;;;5069726;28;20036;-80
2023/12/10 01:05:56;;;;;;;1999.90;999.90;;;6.60;99.90;;;;;;5073201;28;20060;-79
2023/12/10 01:08:22;;;;;;;1999.90;999.90;;;6.60;99.90;;;;;;5049400;28;20689;-81
2023/12/10 01:10:48;;;;;;;1999.90;999.90;;;6.60;99.90;;;;;;5069329;28;20036;-81
2023/12/10 01:13:14;;;;;;;1999.90;999.90;;;6.60;99.90;;;;;;5071187;28;20051;-83
2023/12/10 01:15:40;;;;;;;1999.90;999.90;;;6.60;99.90;;;;;;5071911;28;20049;-80
2023/12/10 01:18:06;;;;;;;1999.90;999.90;;;6.60;99.90;;;;;;5073029;28;20028;-84
2023/12/10 01:20:33;;;;;;;1999.90;999.90;;;6.50;99.90;;;;;;5070420;28;20040;-81
2023/12/10 01:22:59;;;;;;;1999.90;999.90;;;6.50;99.90;;;;;;5055556;28;20059;-82
2023/12/10 01:25:26;;;;;;;1999.90;999.90;;;6.40;99.90;;;;;;5077797;28;20110;-80
2023/12/10 01:27:52;;;;;;;1999.90;999.90;;;6.40;99.90;;;;;;5070021;28;20102;-83
2023/12/10 01:30:23;;;;;;;1999.90;999.90;;;6.30;99.90;;;;;;5075572;28;20030;-80
2023/12/10 01:32:56;;;;;;;1999.90;999.90;;;6.30;99.90;;;;;;5067701;28;20028;-81
2023/12/10 01:35:22;;;;;;;1999.90;999.90;;;6.30;99.90;;;;;;5069362;28;20029;-80
2023/12/10 01:37:47;;;;;;;1999.90;999.90;;;6.20;99.90;;;;;;5074048;28;20517;-82
2023/12/10 01:40:13;;;;;;;1999.90;999.90;;;6.10;99.90;;;;;;5056380;28;20478;-80
2023/12/10 01:42:47;;;;;;;1999.90;999.90;;;6.00;99.90;;;;;;5067629;28;20039;-80
2023/12/10 01:45:13;;;;;;;1999.90;999.90;;;6.00;99.90;;;;;;5074948;28;20032;-81
2023/12/10 01:47:43;;;;;;;1999.90;999.90;;;5.90;99.90;;;;;;5072528;28;20063;-80
2023/12/10 01:50:12;;;;;;;1999.90;999.90;;;5.90;99.90;;;;;;5076262;28;20036;-82
2023/12/10 01:52:44;;;;;;;1999.90;999.90;;;5.80;99.90;;;;;;5054222;28;20418;-78
2023/12/10 01:55:10;;;;;;;1999.90;999.90;;;5.70;99.90;;;;;;5077120;28;20174;-79
2023/12/10 01:57:37;;;;;;;1999.90;999.90;;;5.70;99.90;;;;;;5071017;28;20032;-79
2023/12/10 02:00:07;;;;;;;1999.90;999.90;;;5.60;99.90;;;;;;5076902;28;20028;-78
2023/12/10 02:02:37;;;;;;;1999.90;999.90;;;5.50;99.90;;;;;;5075031;28;20105;-79
2023/12/10 02:05:08;;;;;;;1999.90;999.90;;;5.50;99.90;;;;;;5065495;28;20036;-80
2023/12/10 02:07:34;;;;;;;1999.90;999.90;;;5.50;99.90;;;;;;5070963;28;20032;-79
2023/12/10 02:10:00;;;;;;;1999.90;999.90;;;5.40;99.90;;;;;;5068016;28;20108;-80
2023/12/10 02:12:27;;;;;;;1999.90;999.90;;;5.40;99.90;;;;;;5070680;28;20124;-80
2023/12/10 02:14:54;;;;;;;1999.90;999.90;;;5.30;99.90;;;;;;5056037;28;20033;-80
2023/12/10 02:17:21;;;;;;;1999.90;999.90;;;5.30;99.90;;;;;;5073553;28;20020;-81
2023/12/10 02:19:47;;;;;;;1999.90;999.90;;;5.30;99.90;;;;;;5073240;28;20024;-82
2023/12/10 02:22:17;;;;;;;1999.90;999.90;;;5.10;99.90;;;;;;5075184;28;20402;-79
2023/12/10 02:25:01;;;;;;;1999.90;999.90;;;5.00;99.90;;;;;;5073120;28;20425;-79
2023/12/10 02:27:27;;;;;;;1999.90;999.90;;;4.80;99.90;;;;;;5067929;28;20059;-79
2023/12/10 02:29:54;;;;;;;1999.90;999.90;;;4.90;99.90;;;;;;5069860;28;20075;-78
2023/12/10 02:32:20;;;;;;;1999.90;999.90;;;4.80;99.90;;;;;;5070486;28;20063;-79
2023/12/10 02:34:45;;;;;;;1999.90;999.90;;;4.80;99.90;;;;;;5072880;28;20629;-79
2023/12/10 02:37:11;;;;;;;1999.90;999.90;;;4.70;99.90;;;;;;5073026;28;20040;-79
2023/12/10 02:39:37;;;;;;;1999.90;999.90;;;4.70;99.90;;;;;;5068878;28;20032;-79
2023/12/10 02:42:03;;;;;;;1999.90;999.90;;;4.60;99.90;;;;;;5068222;28;20032;-75
2023/12/10 02:44:29;;;;;;;1999.90;999.90;;;4.60;99.90;;;;;;5071610;28;20532;-81
2023/12/10 02:46:55;;;;;;;1999.90;999.90;;;4.70;99.90;;;;;;5067696;28;20123;-79
2023/12/10 02:49:20;;;;;;;1999.90;999.90;;;4.80;99.90;;;;;;5071869;28;20119;-79
2023/12/10 02:51:46;;;;;;;1999.90;999.90;;;4.80;99.90;;;;;;5069219;28;20024;-81
2023/12/10 02:54:12;;;;;;;1999.90;999.90;;;4.80;99.90;;;;;;5065784;28;20087;-79
2023/12/10 02:56:37;;;;;;;1999.90;999.90;;;4.80;99.90;;;;;;5067952;28;20025;-80
2023/12/10 02:59:03;;;;;;;1999.90;999.90;;;4.70;99.90;;;;;;5073482;28;20040;-80
2023/12/10 03:01:29;;;;;;;1999.90;999.90;;;4.80;99.90;;;;;;5072831;28;20584;-79
2023/12/10 03:03:55;;;;;;;1999.90;999.90;;;4.60;99.90;;;;;;5069157;28;20103;-79
2023/12/10 03:06:21;;;;;;;1999.90;999.90;;;4.70;99.90;;;;;;5071844;28;20042;-78
2023/12/10 03:08:46;;;;;;;1999.90;999.90;;;4.70;99.90;;;;;;5072528;28;20053;-79
2023/12/10 03:11:12;;;;;;;1999.90;999.90;;;4.70;99.90;;;;;;5067645;28;20187;-77
2023/12/10 03:13:38;;;;;;;1999.90;999.90;;;4.80;99.90;;;;;;5072337;28;20028;-75
2023/12/10 03:16:04;;;;;;;1999.90;999.90;;;4.70;99.90;;;;;;5071395;28;20036;-77
2023/12/10 03:18:30;;;;;;;1999.90;999.90;;;5.80;99.90;;;;;;5066373;28;20031;-77
2023/12/10 03:20:55;;;;;;;1999.90;999.90;;;6.00;99.90;;;;;;5099015;27;20048;-78
2023/12/10 03:23:21;;;;;;;1999.90;999.90;;;6.00;99.90;;;;;;5071665;28;20028;-78
2023/12/10 03:25:47;;;;;;;1999.90;999.90;;;6.10;99.90;;;;;;5069464;28;20030;-79
2023/12/10 03:28:12;;;;;;;1999.90;999.90;;;6.20;99.90;;;;;;5071037;28;20494;-78
2023/12/10 03:30:38;;;;;;;1999.90;999.90;;;6.20;99.90;;;;;;5070697;28;20039;-79
2023/12/10 03:33:04;;;;;;;1999.90;999.90;;;6.10;99.90;;;;;;5071623;28;20151;-78
2023/12/10 03:35:29;;;;;;;1999.90;999.90;;;6.20;99.90;;;;;;5070811;28;20381;-80
2023/12/10 03:37:55;;;;;;;1999.90;999.90;;;6.30;99.90;;;;;;5074052;28;20027;-81
2023/12/10 03:40:21;;;;;;;1999.90;999.90;;;6.30;99.90;;;;;;5071377;28;20501;-79
2023/12/10 03:42:47;;;;;;;1999.90;999.90;;;6.20;99.90;;;;;;5072267;28;20028;-79
2023/12/10 03:45:14;;;;;;;1999.90;999.90;;;6.20;99.90;;;;;;5049928;28;20033;-78
2023/12/10 03:47:46;;;;;;;1999.90;999.90;;;6.30;99.90;;;;;;5071531;28;20035;-79
2023/12/10 03:50:15;;;;;;;1999.90;999.90;;;6.40;99.90;;;;;;5071757;28;20025;-79
2023/12/10 03:52:41;;;;;;;1999.90;999.90;;;6.20;99.90;;;;;;5070324;28;20044;-79
2023/12/10 03:55:07;;;;;;;1999.90;999.90;;;6.40;99.90;;;;;;5070541;28;20024;-80
2023/12/10 03:57:33;;;;;;;1999.90;999.90;;;6.30;99.90;;;;;;5069847;28;20086;-79
2023/12/10 03:59:59;;;;;;;1999.90;999.90;;;6.40;99.90;;;;;;5071111;28;20105;-79
2023/12/10 04:02:25;;;;;;;1999.90;999.90;;;6.40;99.90;;;;;;5071131;28;20369;-78
2023/12/10 04:04:50;;;;;;;1999.90;999.90;;;6.30;99.90;;;;;;5068793;28;20051;-79
2023/12/10 04:07:16;;;;;;;1999.90;999.90;;;6.30;99.90;;;;;;5068579;28;20024;-78
2023/12/10 04:09:42;;;;;;;1999.90;999.90;;;6.50;99.90;;;;;;5071410;28;20055;-79
2023/12/10 04:12:08;;;;;;;1999.90;999.90;;;6.40;99.90;;;;;;5066252;28;20037;-80
2023/12/10 04:14:33;;;;;;;1999.90;999.90;;;6.40;99.90;;;;;;5071857;28;20101;-79
2023/12/10 04:16:59;;;;;;;1999.90;999.90;;;6.40;99.90;;;;;;5068949;28;20135;-79
2023/12/10 04:19:25;;;;;;;1999.90;999.90;;;6.40;99.90;;;;;;5072959;28;20032;-77
2023/12/10 04:21:50;;;;;;;1999.90;999.90;;;6.30;99.90;;;;;;5069638;28;20036;-79
2023/12/10 04:24:16;;;;;;;1999.90;999.90;;;6.30;99.90;;;;;;5101421;28;20559;-77
2023/12/10 04:26:42;;;;;;;1999.90;999.90;;;6.30;99.90;;;;;;5067895;28;20037;-78
2023/12/10 04:29:12;;;;;;;1999.90;999.90;;;6.30;99.90;;;;;;5069237;28;20375;-78
2023/12/10 04:31:38;;;;;;;1999.90;999.90;;;6.20;99.90;;;;;;5067836;28;20028;-79
2023/12/10 04:34:03;;;;;;;1999.90;999.90;;;6.20;99.90;;;;;;5072893;28;20409;-77
2023/12/10 04:36:29;;;;;;;1999.90;999.90;;;6.20;99.90;;;;;;5068481;28;20101;-76
2023/12/10 04:38:55;;;;;;;1999.90;999.90;;;6.20;99.90;;;;;;5069591;28;20029;-79
2023/12/10 04:41:21;;;;;;;1999.90;999.90;;;6.30;99.90;;;;;;5068228;28;20131;-78
2023/12/10 04:43:48;;;;;;;1999.90;999.90;;;6.20;99.90;;;;;;5071334;28;20067;-78
2023/12/10 04:46:16;;;;;;;1999.90;999.90;;;6.10;99.90;;;;;;5069358;28;20137;-78
2023/12/10 04:48:42;;;;;;;1999.90;999.90;;;6.20;99.90;;;;;;5067307;28;20677;-77
2023/12/10 04:51:08;;;;;;;1999.90;999.90;;;6.20;99.90;;;;;;5070115;28;20043;-78
2023/12/10 04:53:34;;;;;;;1999.90;999.90;;;6.20;99.90;;;;;;5054145;28;20044;-79
2023/12/10 04:55:59;;;;;;;1999.90;999.90;;;6.20;99.90;;;;;;5070719;28;20032;-78
2023/12/10 04:58:25;;;;;;;1999.90;999.90;;;6.30;99.90;;;;;;5072316;28;20115;-80
2023/12/10 05:00:51;;;;;;;1999.90;999.90;;;6.20;99.90;;;;;;5073164;28;20044;-78
2023/12/10 05:03:16;;;;;;;1999.90;999.90;;;6.30;99.90;;;;;;5108735;27;20032;-78
2023/12/10 05:05:42;;;;;;;1999.90;999.90;;;6.20;99.90;;;;;;5073260;28;20043;-78
2023/12/10 05:08:08;;;;;;;1999.90;999.90;;;6.20;99.90;;;;;;5074531;28;20041;-78
2023/12/10 05:10:34;;;;;;;1999.90;999.90;;;6.20;99.90;;;;;;5076884;28;20451;-77
2023/12/10 05:12:59;;;;;;;1999.90;999.90;;;6.10;99.90;;;;;;5069814;28;20032;-77
2023/12/10 05:15:25;;;;;;;1999.90;999.90;;;6.10;99.90;;;;;;5073503;28;20373;-78
2023/12/10 05:17:51;;;;;;;1999.90;999.90;;;6.10;99.90;;;;;;5071520;28;20044;-80
2023/12/10 05:20:17;;;;;;;1999.90;999.90;;;6.10;99.90;;;;;;5074236;28;20037;-78
2023/12/10 05:22:42;;;;;;;1999.90;999.90;;;6.00;99.90;;;;;;5073838;28;20785;-77
2023/12/10 05:25:08;;;;;;;1999.90;999.90;;;6.00;99.90;;;;;;5072505;28;20032;-78
2023/12/10 05:27:34;;;;;;;1999.90;999.90;;;6.10;99.90;;;;;;5072086;28;20107;-78
2023/12/10 05:30:00;;;;;;;1999.90;999.90;;;6.10;99.90;;;;;;5072645;28;20024;-78
2023/12/10 05:32:27;;;;;;;1999.90;999.90;;;6.10;99.90;;;;;;5073784;28;20117;-79
2023/12/10 05:34:53;;;;;;;1999.90;999.90;;;5.90;99.90;;;;;;5072163;28;20068;-78
2023/12/10 05:37:19;;;;;;;1999.90;999.90;;;6.00;99.90;;;;;;5075052;28;20386;-79
2023/12/10 05:39:45;;;;;;;1999.90;999.90;;;5.80;99.90;;;;;;5052577;28;20024;-79
2023/12/10 05:42:10;;;;;;;1999.90;999.90;;;5.70;99.90;;;;;;5109796;27;20151;-78
2023/12/10 05:44:36;;;;;;;1999.90;999.90;;;5.70;99.90;;;;;;5072281;28;20032;-78
2023/12/10 05:47:02;;;;;;;1999.90;999.90;;;5.60;99.90;;;;;;5071571;28;20040;-77
2023/12/10 05:49:28;;;;;;;1999.90;999.90;;;5.70;99.90;;;;;;5072229;28;20039;-78
2023/12/10 05:51:55;;;;;;;1999.90;999.90;;;5.60;99.90;;;;;;5071727;28;20032;-77
2023/12/10 05:54:20;;;;;;;1999.90;999.90;;;5.50;99.90;;;;;;5071934;28;20543;-76
2023/12/10 05:56:46;;;;;;;1999.90;999.90;;;5.50;99.90;;;;;;5072846;28;20035;-76
2023/12/10 05:59:12;;;;;;;1999.90;999.90;;;5.40;99.90;;;;;;5071701;28;20028;-76
2023/12/10 06:01:38;;;;;;;1999.90;999.90;;;5.30;99.90;;;;;;5072076;28;20036;-77
2023/12/10 06:04:03;;;;;;;1999.90;999.90;;;5.20;99.90;;;;;;5072555;28;20024;-77
2023/12/10 06:06:29;;;;;;;1999.90;999.90;;;5.20;99.90;;;;;;5069767;28;20037;-77
2023/12/10 06:08:55;;;;;;;1999.90;999.90;;;5.10;99.90;;;;;;5072948;28;20036;-79
2023/12/10 06:11:21;;;;;;;1999.90;999.90;;;5.20;99.90;;;;;;5072602;28;20494;-79
2023/12/10 06:13:47;;;;;;;1999.90;999.90;;;5.00;99.90;;;;;;5070162;28;20036;-77
2023/12/10 06:16:13;;;;;;;1999.90;999.90;;;4.90;99.90;;;;;;5072657;28;20513;-80
2023/12/10 06:18:39;;;;;;;1999.90;999.90;;;4.80;99.90;;;;;;5073448;28;20032;-78
2023/12/10 06:21:05;;;;;;;1999.90;999.90;;;4.80;99.90;;;;;;5070175;28;20063;-80
2023/12/10 06:23:30;;;;;;;1999.90;999.90;;;4.80;99.90;;;;;;5072521;28;20037;-78
2023/12/10 06:25:56;;;;;;;1999.90;999.90;;;4.50;99.90;;;;;;5069972;28;20549;-79
2023/12/10 06:28:22;;;;;;;1999.90;999.90;;;4.10;99.90;;;;;;5069330;28;20106;-78
2023/12/10 06:30:47;;;;;;;1999.90;999.90;;;4.10;99.90;;;;;;5070754;28;20401;-78
2023/12/10 06:33:13;;;;;;;1999.90;999.90;;;4.00;99.90;;;;;;5069463;28;20085;-76
2023/12/10 06:35:39;;;;;;;1999.90;999.90;;;4.00;99.90;;;;;;5071945;28;20036;-76
2023/12/10 06:38:04;;;;;;;1999.90;999.90;;;4.00;99.90;;;;;;5067087;28;20028;-78
2023/12/10 06:40:30;;;;;;;1999.90;999.90;;;3.90;99.90;;;;;;5065612;28;20241;-77
2023/12/10 06:42:56;;;;;;;1999.90;999.90;;;4.00;99.90;;;;;;5083150;28;20047;-78
2023/12/10 06:45:21;;;;;;;1999.90;999.90;;;3.90;99.90;;;;;;5069218;28;20131;-78
2023/12/10 06:47:47;;;;;;;1999.90;999.90;;;3.70;99.90;;;;;;5062302;28;20040;-77
2023/12/10 06:50:13;;;;;;;1999.90;999.90;;;3.80;99.90;;;;;;5069632;28;20486;-77
2023/12/10 06:52:39;;;;;;;1999.90;999.90;;;3.80;99.90;;;;;;5067347;28;20443;-77
2023/12/10 06:55:05;;;;;;;1999.90;999.90;;;3.80;99.90;;;;;;5066070;28;20047;-78
2023/12/10 06:57:30;;;;;;;1999.90;999.90;;;3.70;99.90;;;;;;5063745;28;20060;-78
2023/12/10 06:59:56;;;;;;;1999.90;999.90;;;3.70;99.90;;;;;;5068633;28;20413;-77
2023/12/10 07:02:25;;;;;;;1999.90;999.90;;;3.80;99.90;;;;;;5072071;28;20028;-77
2023/12/10 07:04:51;;;;;;;1999.90;999.90;;;3.70;99.90;;;;;;5069876;28;20417;-77
2023/12/10 07:07:16;;;;;;;1999.90;999.90;;;3.60;99.90;;;;;;5065806;28;20028;-77
2023/12/10 07:09:42;;;;;;;1999.90;999.90;;;3.60;99.90;;;;;;5071021;28;20024;-78
2023/12/10 07:12:08;;;;;;;1999.90;999.90;;;3.50;99.90;;;;;;5058524;28;20042;-77
2023/12/10 07:14:36;;;;;;;1999.90;999.90;;;3.50;99.90;;;;;;5066896;28;20454;-78
2023/12/10 07:17:02;;;;;;;1999.90;999.90;;;3.50;99.90;;;;;;5063973;28;20028;-78
2023/12/10 07:19:28;;;;;;;1999.90;999.90;;;3.50;99.90;;;;;;5053888;28;20033;-77
2023/12/10 07:21:55;;;;;;;1999.90;999.90;;;3.60;99.90;;;;;;5053337;28;20036;-77
2023/12/10 07:24:21;;;;;;;1999.90;999.90;;;3.70;99.90;;;;;;5065597;28;20024;-78
2023/12/10 07:26:47;;;;;;;1999.90;999.90;;;3.70;99.90;;;;;;5055071;28;20033;-75
2023/12/10 07:29:14;;;;;;;1999.90;999.90;;;3.70;99.90;;;;;;5062845;28;20081;-75
2023/12/10 07:31:39;;;;;;;1999.90;999.90;;;3.80;99.90;;;;;;5066052;28;20028;-75
2023/12/10 07:34:05;;;;;;;1999.90;999.90;;;3.90;99.90;;;;;;5062342;28;20040;-75
2023/12/10 07:36:31;;;;;;;1999.90;999.90;;;3.90;99.90;;;;;;5049564;28;20050;-75
2023/12/10 07:38:56;;;;;;;1999.90;999.90;;;4.10;99.90;;;;;;5065382;28;20032;-74
2023/12/10 07:41:22;;;;;;;1999.90;999.90;;;4.10;99.90;;;;;;5063957;28;20514;-76
2023/12/10 07:43:48;;;;;;;1999.90;999.90;;;4.10;99.90;;;;;;5047693;28;20126;-80
2023/12/10 07:46:14;;;;;;;1999.90;999.90;;;4.10;99.90;;;;;;5063770;28;20521;-78
2023/12/10 07:48:39;;;;;;;1999.90;999.90;;;4.10;99.90;;;;;;5045591;28;20029;-78
2023/12/10 07:51:05;;;;;;;1999.90;999.90;;;4.20;99.90;;;;;;5068099;28;20581;-77
2023/12/10 07:53:31;;;;;;;1999.90;999.90;;;4.20;99.90;;;;;;5059675;28;20053;-77
2023/12/10 07:55:57;;;;;;;1999.90;999.90;;;4.20;99.90;;;;;;5060998;28;20029;-79
2023/12/10 07:58:22;;;;;;;1999.90;999.90;;;4.30;99.90;;;;;;5061232;28;20032;-80
2023/12/10 08:00:48;;;;;;;1999.90;999.90;;;4.30;99.90;;;;;;5063342;28;20032;-76
2023/12/10 08:03:14;;;;;;;1999.90;999.90;;;4.40;99.90;;;;;;5064476;28;20371;-77
2023/12/10 08:05:40;;;;;;;1999.90;999.90;;;4.40;99.90;;;;;;5059679;28;20032;-76
2023/12/10 08:08:06;;;;;;;1999.90;999.90;;;4.50;99.90;;;;;;5063439;28;20039;-76
2023/12/10 08:10:32;;;;;;;1999.90;999.90;;;4.50;99.90;;;;;;5062226;28;20029;-75
2023/12/10 08:12:58;;;;;;;1999.90;999.90;;;4.60;99.90;;;;;;5060349;28;20040;-75
2023/12/10 08:15:24;;;;;;;1999.90;999.90;;;4.60;99.90;;;;;;5065437;28;20029;-75
2023/12/10 08:17:50;;;;;;;1999.90;999.90;;;4.70;99.90;;;;;;5064503;28;20036;-76
2023/12/10 08:20:16;;;;;;;1999.90;999.90;;;4.70;99.90;;;;;;5070444;28;20035;-75
2023/12/10 08:22:41;;;;;;;1999.90;999.90;;;4.70;99.90;;;;;;5067267;28;20029;-76
2023/12/10 08:25:07;;;;;;;1999.90;999.90;;;4.80;99.90;;;;;;5063365;28;20082;-76
2023/12/10 08:27:33;;;;;;;1999.90;999.90;;;4.80;99.90;;;;;;5068945;28;20090;-77
2023/12/10 08:29:59;;;;;;;1999.90;999.90;;;4.70;99.90;;;;;;5067446;28;20029;-76
2023/12/10 08:32:24;;;;;;;1999.90;999.90;;;4.90;98.70;;;;;;5105019;27;20040;-76
2023/12/10 08:34:50;;;;;;;1999.90;999.90;;;5.00;97.60;;;;;;5070409;28;20498;-75
2023/12/10 08:37:16;;;;;;;1999.90;999.90;;;5.10;96.00;;;;;;5070446;28;20074;-76
2023/12/10 08:39:42;;;;;;;1999.90;999.90;;;5.20;94.10;;;;;;5067386;28;20032;-75
2023/12/10 08:42:08;;;;;;;1999.90;999.90;;;5.40;93.90;;;;;;5065594;28;20029;-76
2023/12/10 08:44:34;;;;;;;1999.90;999.90;;;5.40;93.10;;;;;;5070798;28;20535;-75
2023/12/10 08:46:59;;;;;;;1999.90;999.90;;;5.50;92.70;;;;;;5068345;28;20033;-75
2023/12/10 08:49:25;;;;;;;1999.90;999.90;;;5.50;92.60;;;;;;5072381;28;20036;-75
2023/12/10 08:51:51;;;;;;;1999.90;999.90;;;5.50;92.30;;;;;;5070756;28;20059;-76
2023/12/10 08:54:17;;;;;;;1999.90;999.90;;;5.30;92.30;;;;;;5071598;28;20028;-77
2023/12/10 08:56:42;;;;;;;1999.90;999.90;;;5.30;92.80;;;;;;5070494;28;20027;-76
2023/12/10 08:59:09;;;;;;;1999.90;999.90;;;5.30;92.80;;;;;;5074211;28;20025;-78
2023/12/10 09:01:35;;;;;;;1999.90;999.90;;;5.30;92.90;;;;;;5066833;28;20029;-78
2023/12/10 09:04:03;;;;;;;1999.90;999.90;;;5.20;93.20;;;;;;5070371;28;20040;-77
2023/12/10 09:06:29;;;;;;;1999.90;999.90;;;5.30;93.30;;;;;;5074878;28;20032;-76
2023/12/10 09:08:55;;;;;;;1999.90;999.90;;;5.20;93.40;;;;;;5071072;28;20032;-79
2023/12/10 09:11:21;;;;;;;1999.90;999.90;;;5.10;93.80;;;;;;5068290;28;20039;-76
2023/12/10 09:13:47;;;;;;;1999.90;999.90;;;5.10;94.10;;;;;;5068528;28;20097;-75
2023/12/10 09:16:14;;;;;;;1999.90;999.90;;;5.10;93.80;;;;;;5065800;28;20399;-76
2023/12/10 09:18:39;;;;;;;1999.90;999.90;;;5.10;94.10;;;;;;5066788;28;20036;-78
2023/12/10 09:21:07;;;;;;;1999.90;999.90;;;5.10;94.00;;;;;;5069420;28;20032;-76
2023/12/10 09:23:34;;;;;;;1999.90;999.90;;;5.30;94.40;;;;;;5069567;28;20033;-80
2023/12/10 09:26:00;;;;;;;1999.90;999.90;;;5.30;94.20;;;;;;5068729;28;20114;-76
2023/12/10 09:28:26;;;;;;;1999.90;999.90;;;5.40;94.40;;;;;;5068155;28;20028;-75
2023/12/10 09:30:52;;;;;;;1999.90;999.90;;;5.40;94.50;;;;;;5070848;28;20514;-75
2023/12/10 09:33:18;;;;;;;1999.90;999.90;;;5.30;94.00;;;;;;5049503;28;20045;-76
2023/12/10 09:35:43;;;;;;;1999.90;999.90;;;5.40;94.60;;;;;;5063160;28;20041;-76
2023/12/10 09:38:09;;;;;;;1999.90;999.90;;;5.40;94.00;;;;;;5069163;28;20036;-78
2023/12/10 09:40:35;;;;;;;1999.90;999.90;;;5.50;94.50;;;;;;5050322;28;20033;-76
2023/12/10 09:43:04;;;;;;;1999.90;999.90;;;5.60;94.60;;;;;;5066534;28;20047;-74
2023/12/10 09:45:29;;;;;;;1999.90;999.90;;;5.60;94.20;;;;;;5065089;28;20041;-74
2023/12/10 09:47:55;;;;;;;1999.90;999.90;;;5.70;94.20;;;;;;5069116;28;20043;-74
2023/12/10 09:50:22;;;;;;;1999.90;999.90;;;5.70;93.90;;;;;;5066132;28;20067;-73
2023/12/10 09:52:51;;;;;;;1999.90;999.90;;;5.60;93.60;;;;;;5067056;28;20071;-74
2023/12/10 09:55:17;;;;;;;1999.90;999.90;;;5.60;93.70;;;;;;5066533;28;20028;-73
2023/12/10 09:57:43;;;;;;;1999.90;999.90;;;5.70;93.60;;;;;;5068144;28;20040;-75
2023/12/10 10:00:10;;;;;;;1999.90;999.90;;;5.70;93.20;;;;;;5067516;28;20039;-74
2023/12/10 10:02:36;;;;;;;1999.90;999.90;;;5.80;92.00;;;;;;5070710;28;20024;-72
2023/12/10 10:05:05;;;;;;;1999.90;999.90;;;6.00;91.70;;;;;;5055220;28;20067;-75
2023/12/10 10:07:31;;;;;;;1999.90;999.90;;;6.10;90.90;;;;;;5068449;28;20052;-76
2023/12/10 10:09:57;;;;;;;1999.90;999.90;;;6.20;90.60;;;;;;5068091;28;20063;-76
2023/12/10 10:12:28;;;;;;;1999.90;999.90;;;6.50;89.70;;;;;;5070397;28;20044;-77
2023/12/10 10:14:58;;;;;;;1999.90;999.90;;;6.80;88.40;;;;;;5067055;28;20039;-74
2023/12/10 10:17:29;;;;;;;1999.90;999.90;;;7.10;86.70;;;;;;5071068;28;20109;-76
2023/12/10 10:19:55;;;;;;;1999.90;999.90;;;7.10;85.80;;;;;;5069409;28;20706;-77
2023/12/10 10:22:25;;;;;;;1999.90;999.90;;;7.10;86.80;;;;;;5072837;28;20090;-76
2023/12/10 10:24:54;;;;;;;1999.90;999.90;;;7.00;87.00;;;;;;5056088;28;20037;-76
2023/12/10 10:27:21;;;;;;;1999.90;999.90;;;6.90;87.30;;;;;;5070049;28;20763;-76
2023/12/10 10:29:52;;;;;;;1999.90;999.90;;;6.90;87.70;;;;;;5067363;28;20041;-77
2023/12/10 10:32:19;;;;;;;1999.90;999.90;;;7.00;87.70;;;;;;5070160;28;20066;-76
2023/12/10 10:34:49;;;;;;;1999.90;999.90;;;6.90;87.40;;;;;;5073160;28;20016;-74
2023/12/10 10:37:15;;;;;;;1999.90;999.90;;;6.90;87.70;;;;;;5070574;28;20029;-74
2023/12/10 10:39:42;;;;;;;1999.90;999.90;;;6.80;87.60;;;;;;5068907;28;20029;-74
2023/12/10 10:42:10;;;;;;;1999.90;999.90;;;6.80;88.40;;;;;;5070837;28;20466;-74
2023/12/10 10:44:37;;;;;;;1999.90;999.90;;;6.80;87.40;;;;;;5067625;28;20083;-74
2023/12/10 10:47:05;;;;;;;1999.90;999.90;;;6.90;87.60;;;;;;5050320;28;20028;-75
2023/12/10 10:49:33;;;;;;;1999.90;999.90;;;6.80;87.60;;;;;;5052884;28;20028;-75
2023/12/10 10:52:02;;;;;;;1999.90;999.90;;;6.70;87.90;;;;;;5071136;28;20045;-75
2023/12/10 10:54:28;;;;;;;1999.90;999.90;;;6.80;87.70;;;;;;5083000;28;20020;-75
2023/12/10 10:56:54;;;;;;;1999.90;999.90;;;6.80;87.90;;;;;;5069666;28;20032;-75
2023/12/10 10:59:31;;;;;;;1999.90;999.90;;;6.90;88.30;;;;;;5071278;28;20040;-75
2023/12/10 11:02:04;;;;;;;1999.90;999.90;;;6.90;87.90;;;;;;5067259;28;20024;-73
2023/12/10 11:04:39;;;;;;;1999.90;999.90;;;6.90;87.70;;;;;;5051453;28;20539;-75
2023/12/10 11:07:05;;;;;;;1999.90;999.90;;;6.90;86.90;;;;;;5071425;28;20040;-74
2023/12/10 11:09:32;;;;;;;1999.90;999.90;;;6.90;87.40;;;;;;5070247;28;20347;-74
2023/12/10 11:12:00;;;;;;;1999.90;999.90;;;7.00;87.60;;;;;;5070323;28;20036;-75
2023/12/10 11:14:29;;;;;;;1999.90;999.90;;;6.90;87.50;;;;;;5070653;28;20099;-74
2023/12/10 11:16:59;;;;;;;1999.90;999.90;;;7.00;87.30;;;;;;5065073;28;20056;-74
2023/12/10 11:19:25;;;;;;;1999.90;999.90;;;7.10;87.10;;;;;;5065979;28;20036;-75
2023/12/10 11:21:51;;;;;;;1999.90;999.90;;;7.10;86.60;;;;;;5070021;28;20047;-74
2023/12/10 11:24:17;;;;;;;1999.90;999.90;;;7.10;86.80;;;;;;5069821;28;20687;-74
2023/12/10 11:26:43;;;;;;;1999.90;999.90;;;7.30;87.00;;;;;;5067351;28;20036;-75
2023/12/10 11:29:09;;;;;;;1999.90;999.90;;;7.60;86.50;;;;;;5071791;28;20032;-75
2023/12/10 11:31:35;;;;;;;1999.90;999.90;;;7.90;85.40;;;;;;5069793;28;20801;-75
2023/12/10 11:34:01;;;;;;;1999.90;999.90;;;8.00;84.10;;;;;;5068890;28;20024;-74
2023/12/10 11:36:27;;;;;;;1999.90;999.90;;;7.80;84.20;;;;;;5063456;28;20610;-74
2023/12/10 11:38:53;;;;;;;1999.90;999.90;;;7.60;84.50;;;;;;5067839;28;20123;-76
2023/12/10 11:41:18;;;;;;;1999.90;999.90;;;7.30;84.90;;;;;;5050691;28;20041;-74
2023/12/10 11:43:45;;;;;;;1999.90;999.90;;;7.40;85.80;;;;;;5070616;28;20040;-75
2023/12/10 11:46:21;;;;;;;1999.90;999.90;;;7.60;85.60;;;;;;5067405;28;20564;-73
2023/12/10 11:48:47;;;;;;;1999.90;999.90;;;7.80;85.00;;;;;;5066009;28;20028;-73
2023/12/10 11:51:13;;;;;;;1999.90;999.90;;;7.80;84.90;;;;;;5069945;28;20373;-74
2023/12/10 11:53:40;;;;;;;1999.90;999.90;;;7.50;85.00;;;;;;5065587;28;20048;-74
2023/12/10 11:56:08;;;;;;;1999.90;999.90;;;7.60;84.50;;;;;;5084775;28;20028;-72
2023/12/10 11:58:33;;;;;;;1999.90;999.90;;;7.40;85.20;;;;;;5070960;28;20107;-74
2023/12/10 12:01:00;;;;;;;1999.90;999.90;;;7.30;86.50;;;;;;5068933;28;20710;-74
2023/12/10 12:03:29;;;;;;;1999.90;999.90;;;7.20;86.70;;;;;;5073061;28;20470;-74